Time;durP1;ratioP1;P1;durP2;ratioP2;P2;SDS_P1;SDS_P2;PMS_P1;PMS_P2;Temp;Humidity;BMP_temperature;BMP_pressure;BME280_temperature;BME280_humidity;BME280_pressure;Samples;Min_cycle;Max_cycle;Signal;HPM_P1;HPM_P2
2023/05/31 00:01:49;;;;;;;19.35;4.82;;;16.10;93.50;;;;;;5030754;28;20030;-71
2023/05/31 00:04:15;;;;;;;9.57;4.93;;;16.10;93.70;;;;;;5031665;28;20124;-71
2023/05/31 00:06:40;;;;;;;12.15;4.50;;;16.00;94.00;;;;;;5032030;28;20038;-70
2023/05/31 00:09:06;;;;;;;13.20;4.43;;;16.00;94.10;;;;;;5031170;28;20033;-70
2023/05/31 00:11:31;;;;;;;9.27;4.22;;;15.90;94.20;;;;;;5031571;28;20472;-70
2023/05/31 00:13:57;;;;;;;9.85;4.68;;;15.90;94.20;;;;;;5031406;28;20096;-71
2023/05/31 00:16:23;;;;;;;9.50;4.57;;;16.00;94.10;;;;;;5031666;28;20099;-70
2023/05/31 00:18:48;;;;;;;8.85;4.18;;;15.90;94.10;;;;;;5031522;28;20029;-70
2023/05/31 00:21:14;;;;;;;15.15;4.40;;;15.90;94.00;;;;;;5030833;28;20083;-70
2023/05/31 00:23:40;;;;;;;10.60;5.00;;;15.70;94.40;;;;;;5031470;28;20029;-70
2023/05/31 00:26:05;;;;;;;10.18;4.82;;;15.70;94.50;;;;;;5031460;28;20233;-70
2023/05/31 00:28:31;;;;;;;8.70;4.65;;;15.80;94.30;;;;;;5031279;28;20041;-70
2023/05/31 00:30:56;;;;;;;16.30;4.55;;;15.80;94.30;;;;;;5031210;28;20076;-69
2023/05/31 00:33:22;;;;;;;9.65;4.60;;;15.90;94.40;;;;;;5031229;28;20029;-69
2023/05/31 00:35:48;;;;;;;12.15;4.63;;;15.70;94.50;;;;;;5031502;28;20045;-70
2023/05/31 00:38:13;;;;;;;8.32;4.53;;;15.70;94.60;;;;;;5031125;28;20187;-70
2023/05/31 00:40:39;;;;;;;6.85;4.50;;;15.70;94.50;;;;;;5031219;28;20029;-70
2023/05/31 00:43:05;;;;;;;13.73;4.72;;;15.60;94.70;;;;;;5031271;28;20029;-70
2023/05/31 00:45:32;;;;;;;27.95;6.20;;;15.50;94.80;;;;;;5031025;28;20029;-70
2023/05/31 00:48:02;;;;;;;18.45;4.57;;;15.50;95.10;;;;;;5031297;28;20340;-71
2023/05/31 00:50:28;;;;;;;13.38;4.28;;;15.30;95.30;;;;;;5030956;28;20055;-71
2023/05/31 00:52:56;;;;;;;16.42;4.93;;;15.30;95.30;;;;;;5029733;28;20036;-70
2023/05/31 00:55:22;;;;;;;10.10;4.10;;;15.40;95.10;;;;;;5030989;28;20037;-70
2023/05/31 00:57:48;;;;;;;11.60;4.50;;;15.40;95.20;;;;;;5029836;28;20030;-69
2023/05/31 01:00:15;;;;;;;12.68;4.65;;;15.40;95.20;;;;;;5030697;28;20152;-70
2023/05/31 01:02:41;;;;;;;6.82;4.35;;;15.40;95.00;;;;;;5030947;28;20025;-70
2023/05/31 01:05:08;;;;;;;12.68;4.55;;;15.30;95.20;;;;;;5030974;28;20125;-69
2023/05/31 01:07:34;;;;;;;7.65;3.85;;;15.40;95.00;;;;;;5030727;28;20160;-70
2023/05/31 01:10:04;;;;;;;8.55;4.53;;;15.50;94.80;;;;;;5030330;28;20034;-71
2023/05/31 01:12:55;;;;;;;8.68;4.18;;;15.40;95.10;;;;;;5030600;28;20194;-69
2023/05/31 01:15:44;;;;;;;12.85;5.00;;;15.30;95.30;;;;;;5030662;28;20513;-68
2023/05/31 01:18:24;;;;;;;7.85;4.63;;;15.20;95.50;;;;;;5031183;28;20306;-70
2023/05/31 01:20:53;;;;;;;10.00;4.60;;;15.20;95.50;;;;;;5029784;28;20041;-69
2023/05/31 01:23:53;;;;;;;8.38;4.57;;;15.10;95.60;;;;;;5030721;28;20479;-69
2023/05/31 01:26:29;;;;;;;7.05;4.43;;;15.10;95.60;;;;;;5030686;28;20344;-69
2023/05/31 01:28:59;;;;;;;10.10;4.18;;;15.00;95.60;;;;;;5029354;28;20037;-71
2023/05/31 01:31:26;;;;;;;9.18;4.35;;;15.20;95.40;;;;;;5030405;28;20108;-68
2023/05/31 01:33:53;;;;;;;9.05;4.35;;;15.00;95.60;;;;;;5030763;28;20103;-71
2023/05/31 01:36:19;;;;;;;9.13;4.82;;;15.00;95.70;;;;;;5043331;28;20029;-70
2023/05/31 01:38:45;;;;;;;9.77;4.35;;;14.90;95.60;;;;;;5050558;28;20114;-69
2023/05/31 01:41:12;;;;;;;11.77;4.53;;;14.90;96.20;;;;;;5050355;28;20051;-71
2023/05/31 01:43:43;;;;;;;12.18;4.32;;;14.80;96.10;;;;;;5049998;28;20086;-71
2023/05/31 01:46:10;;;;;;;12.55;4.55;;;14.80;96.20;;;;;;5050245;28;20041;-70
2023/05/31 01:48:37;;;;;;;10.48;4.32;;;14.70;96.20;;;;;;5050090;28;20033;-70
2023/05/31 01:51:04;;;;;;;13.43;5.00;;;14.70;96.20;;;;;;5050746;28;20035;-71
2023/05/31 01:53:30;;;;;;;19.40;4.77;;;14.70;96.20;;;;;;5050060;28;20483;-71
2023/05/31 01:55:57;;;;;;;7.82;4.18;;;14.70;96.10;;;;;;5048919;28;20425;-70
2023/05/31 01:58:24;;;;;;;10.25;4.25;;;14.70;96.10;;;;;;5050068;28;20029;-71
2023/05/31 02:00:51;;;;;;;13.55;4.60;;;14.60;96.60;;;;;;5049036;28;20359;-70
2023/05/31 02:03:17;;;;;;;10.02;4.18;;;14.60;96.30;;;;;;5050449;28;20123;-70
2023/05/31 02:05:59;;;;;;;11.73;4.47;;;14.50;96.70;;;;;;5049172;28;20116;-70
2023/05/31 02:08:25;;;;;;;9.43;4.53;;;14.50;96.50;;;;;;5049919;28;20109;-71
2023/05/31 02:10:52;;;;;;;8.60;5.00;;;14.50;96.50;;;;;;5049040;28;20055;-70
2023/05/31 02:13:19;;;;;;;5.93;4.00;;;14.40;96.80;;;;;;5049856;28;20029;-69
2023/05/31 02:15:44;;;;;;;14.93;4.37;;;14.40;96.50;;;;;;5049910;28;20055;-69
2023/05/31 02:18:10;;;;;;;8.43;4.10;;;14.40;96.70;;;;;;5050342;28;20025;-71
2023/05/31 02:20:36;;;;;;;8.90;4.15;;;14.30;96.80;;;;;;5050100;28;20037;-70
2023/05/31 02:23:01;;;;;;;8.85;4.15;;;14.40;96.70;;;;;;5051109;28;20048;-70
2023/05/31 02:25:27;;;;;;;7.00;4.07;;;14.30;96.80;;;;;;5053684;28;20060;-71
2023/05/31 02:27:52;;;;;;;9.73;4.85;;;14.30;96.70;;;;;;5053437;28;20028;-70
2023/05/31 02:30:19;;;;;;;9.00;4.47;;;14.20;96.90;;;;;;5052608;28;20634;-70
2023/05/31 02:32:45;;;;;;;8.63;4.63;;;14.20;97.00;;;;;;5053527;28;20033;-70
2023/05/31 02:35:11;;;;;;;7.57;4.25;;;14.20;97.00;;;;;;5053396;28;20047;-71
2023/05/31 02:37:38;;;;;;;10.13;4.30;;;14.10;97.00;;;;;;5053437;28;20073;-71
2023/05/31 02:40:09;;;;;;;8.13;4.55;;;14.10;97.10;;;;;;5053520;28;20037;-71
2023/05/31 02:42:36;;;;;;;15.70;4.95;;;14.10;97.10;;;;;;5053335;28;20031;-71
2023/05/31 02:45:02;;;;;;;9.70;4.60;;;14.00;97.20;;;;;;5054126;28;20021;-71
2023/05/31 02:47:28;;;;;;;8.80;3.97;;;13.90;97.20;;;;;;5053423;28;20437;-70
2023/05/31 02:49:53;;;;;;;8.30;4.45;;;13.90;97.40;;;;;;5053179;28;20025;-72
2023/05/31 02:52:19;;;;;;;9.05;4.22;;;13.90;97.40;;;;;;5053111;28;20025;-71
2023/05/31 02:54:45;;;;;;;12.98;4.53;;;13.80;97.40;;;;;;5053042;28;20037;-71
2023/05/31 02:57:10;;;;;;;11.90;4.60;;;13.80;97.40;;;;;;5052549;28;20021;-71
2023/05/31 02:59:36;;;;;;;15.15;4.90;;;13.80;97.40;;;;;;5053092;28;20045;-71
2023/05/31 03:02:02;;;;;;;10.50;4.20;;;13.80;97.50;;;;;;5053061;28;20087;-71
2023/05/31 03:04:27;;;;;;;8.60;5.25;;;13.80;97.40;;;;;;5052864;28;20077;-72
2023/05/31 03:06:53;;;;;;;13.30;4.57;;;13.80;97.40;;;;;;5052718;28;20439;-71
2023/05/31 03:09:19;;;;;;;7.75;3.95;;;13.70;97.50;;;;;;5053186;28;20029;-71
2023/05/31 03:11:45;;;;;;;11.48;4.75;;;13.80;97.40;;;;;;5051794;28;20076;-71
2023/05/31 03:14:11;;;;;;;8.93;4.50;;;13.70;97.40;;;;;;5052755;28;20464;-70
2023/05/31 03:16:37;;;;;;;6.68;4.47;;;13.80;97.30;;;;;;5052691;28;20360;-70
2023/05/31 03:19:02;;;;;;;11.07;4.72;;;13.80;97.30;;;;;;5052737;28;20044;-71
2023/05/31 03:21:29;;;;;;;10.70;4.82;;;13.70;97.40;;;;;;5052560;28;20059;-71
2023/05/31 03:23:55;;;;;;;10.02;4.72;;;13.70;97.40;;;;;;5053297;28;20032;-72
2023/05/31 03:26:20;;;;;;;10.88;4.57;;;13.80;97.40;;;;;;5052559;28;20029;-72
2023/05/31 03:28:46;;;;;;;10.93;4.78;;;13.90;97.20;;;;;;5052300;28;20659;-72
2023/05/31 03:31:12;;;;;;;10.13;5.38;;;13.80;97.40;;;;;;5052459;28;20420;-71
2023/05/31 03:33:37;;;;;;;10.45;5.82;;;13.80;97.40;;;;;;5051914;28;20406;-70
2023/05/31 03:36:04;;;;;;;13.00;4.88;;;13.80;97.30;;;;;;5052836;28;20457;-72
2023/05/31 03:38:30;;;;;;;12.18;5.78;;;13.80;97.30;;;;;;5052294;28;20432;-72
2023/05/31 03:40:56;;;;;;;12.73;5.97;;;13.90;97.20;;;;;;5052318;28;20044;-70
2023/05/31 03:43:21;;;;;;;11.50;5.45;;;14.00;97.10;;;;;;5052533;28;20048;-71
2023/05/31 03:45:47;;;;;;;15.25;6.53;;;14.00;97.20;;;;;;5052395;28;20133;-71
2023/05/31 03:48:13;;;;;;;12.68;5.75;;;14.00;97.10;;;;;;5051549;28;20088;-70
2023/05/31 03:50:43;;;;;;;8.77;5.50;;;13.90;97.30;;;;;;5051134;28;20033;-70
2023/05/31 03:53:08;;;;;;;13.18;5.65;;;13.80;97.50;;;;;;5051673;28;20029;-71
2023/05/31 03:55:34;;;;;;;13.52;5.70;;;13.90;97.40;;;;;;5051800;28;20033;-71
2023/05/31 03:58:00;;;;;;;11.52;5.32;;;13.80;97.60;;;;;;5051553;28;20459;-71
2023/05/31 04:00:26;;;;;;;13.32;5.88;;;13.70;97.60;;;;;;5051562;28;20307;-70
2023/05/31 04:02:51;;;;;;;16.65;5.72;;;13.80;97.70;;;;;;5052348;28;20036;-70
2023/05/31 04:05:17;;;;;;;13.95;5.88;;;13.60;97.70;;;;;;5051666;28;20402;-71
2023/05/31 04:07:43;;;;;;;11.77;5.53;;;13.70;97.70;;;;;;5050652;28;20406;-71
2023/05/31 04:10:09;;;;;;;13.00;5.50;;;13.90;97.40;;;;;;5051689;28;20466;-71
2023/05/31 04:12:34;;;;;;;18.38;6.53;;;13.90;97.20;;;;;;5051557;28;20025;-71
2023/05/31 04:15:00;;;;;;;9.75;5.72;;;14.00;96.90;;;;;;5051909;28;20400;-71
2023/05/31 04:17:26;;;;;;;10.20;5.30;;;14.00;97.00;;;;;;5051473;28;20029;-71
2023/05/31 04:19:52;;;;;;;11.90;5.82;;;14.10;97.00;;;;;;5051482;28;20043;-71
2023/05/31 04:22:18;;;;;;;21.30;5.78;;;14.10;96.90;;;;;;5050394;28;20459;-71
2023/05/31 04:24:43;;;;;;;14.85;5.90;;;14.10;96.80;;;;;;5051084;28;20043;-71
2023/05/31 04:27:10;;;;;;;16.58;5.35;;;14.10;96.70;;;;;;5051482;28;20461;-70
2023/05/31 04:29:35;;;;;;;16.35;5.45;;;14.10;96.80;;;;;;5050948;28;20111;-70
2023/05/31 04:32:01;;;;;;;17.20;5.47;;;14.10;96.90;;;;;;5050899;28;20033;-72
2023/05/31 04:34:26;;;;;;;10.48;5.28;;;14.10;96.70;;;;;;5049819;28;20049;-71
2023/05/31 04:36:52;;;;;;;14.13;5.47;;;14.20;96.70;;;;;;5050937;28;20060;-70
2023/05/31 04:39:21;;;;;;;14.25;5.55;;;14.20;96.60;;;;;;5051375;28;20100;-71
2023/05/31 04:41:48;;;;;;;15.07;5.75;;;14.20;96.80;;;;;;5051090;28;20048;-72
2023/05/31 04:44:14;;;;;;;11.38;5.55;;;14.20;96.70;;;;;;5050571;28;20044;-73
2023/05/31 04:46:42;;;;;;;21.50;5.65;;;14.20;96.70;;;;;;5050415;28;20094;-72
2023/05/31 04:49:09;;;;;;;12.85;5.40;;;14.30;96.60;;;;;;5051060;28;20466;-71
2023/05/31 04:51:35;;;;;;;19.88;5.95;;;14.30;96.70;;;;;;5051015;28;20029;-71
2023/05/31 04:54:01;;;;;;;13.00;5.40;;;14.30;96.70;;;;;;5051349;28;20045;-71
2023/05/31 04:56:27;;;;;;;11.57;5.30;;;14.30;96.70;;;;;;5050884;28;20443;-70
2023/05/31 04:58:53;;;;;;;12.43;5.80;;;14.30;96.80;;;;;;5050778;28;20033;-70
2023/05/31 05:01:18;;;;;;;13.27;5.65;;;14.40;96.80;;;;;;5050779;28;20040;-69
2023/05/31 05:03:44;;;;;;;15.48;5.50;;;14.50;96.90;;;;;;5049323;28;20033;-69
2023/05/31 05:06:18;;;;;;;11.82;5.43;;;14.50;96.70;;;;;;5050937;28;20032;-69
2023/05/31 05:08:44;;;;;;;11.48;4.82;;;14.50;96.80;;;;;;5050437;28;20029;-70
2023/05/31 05:11:11;;;;;;;18.45;5.68;;;14.50;96.80;;;;;;5049383;28;20045;-71
2023/05/31 05:13:36;;;;;;;16.17;5.45;;;14.60;96.70;;;;;;5050300;28;20063;-70
2023/05/31 05:16:02;;;;;;;11.52;5.70;;;14.60;96.70;;;;;;5050487;28;20037;-69
2023/05/31 05:18:29;;;;;;;15.68;6.05;;;14.70;96.80;;;;;;5050363;28;20104;-68
2023/05/31 05:20:56;;;;;;;16.67;5.78;;;14.80;96.70;;;;;;5049675;28;20021;-68
2023/05/31 05:23:22;;;;;;;19.50;5.82;;;14.80;96.60;;;;;;5049047;28;20080;-69
2023/05/31 05:25:48;;;;;;;10.55;5.03;;;14.90;96.50;;;;;;5050052;28;20116;-68
2023/05/31 05:28:14;;;;;;;16.67;5.95;;;14.90;96.50;;;;;;5050279;28;20595;-70
2023/05/31 05:30:40;;;;;;;15.07;5.22;;;15.00;96.50;;;;;;5049759;28;20049;-68
2023/05/31 05:33:05;;;;;;;10.68;5.15;;;15.00;96.50;;;;;;5049424;28;20040;-71
2023/05/31 05:35:32;;;;;;;18.42;5.38;;;15.10;96.40;;;;;;5050143;28;20546;-70
2023/05/31 05:37:59;;;;;;;13.20;5.65;;;15.20;96.30;;;;;;5050047;28;20029;-70
2023/05/31 05:40:25;;;;;;;17.05;7.53;;;15.30;96.20;;;;;;5049940;28;20033;-69
2023/05/31 05:42:50;;;;;;;19.33;5.55;;;15.20;96.20;;;;;;5050072;28;20283;-68
2023/05/31 05:45:16;;;;;;;9.60;4.97;;;15.10;96.30;;;;;;5050451;28;20029;-70
2023/05/31 05:47:44;;;;;;;15.63;6.13;;;15.40;96.20;;;;;;5049930;28;20037;-71
2023/05/31 05:50:11;;;;;;;13.50;4.95;;;15.50;95.90;;;;;;5049987;28;20033;-69
2023/05/31 05:52:38;;;;;;;9.77;4.70;;;15.70;95.50;;;;;;5049870;28;20297;-69
2023/05/31 05:55:04;;;;;;;11.18;4.90;;;15.90;95.60;;;;;;5049734;28;20055;-70
2023/05/31 05:57:30;;;;;;;14.88;5.43;;;16.00;95.40;;;;;;5053042;28;20468;-70
2023/05/31 05:59:57;;;;;;;11.98;4.47;;;16.10;95.10;;;;;;5054453;28;20016;-69
2023/05/31 06:02:23;;;;;;;11.57;4.97;;;16.00;95.00;;;;;;5054302;28;20184;-70
2023/05/31 06:04:49;;;;;;;13.63;4.60;;;16.00;94.90;;;;;;5053818;28;20025;-69
2023/05/31 06:07:19;;;;;;;13.35;4.43;;;16.20;95.00;;;;;;5054001;28;20041;-71
2023/05/31 06:09:45;;;;;;;9.85;4.03;;;16.30;94.70;;;;;;5053604;28;20135;-70
2023/05/31 06:12:12;;;;;;;13.13;4.57;;;16.30;94.60;;;;;;5054088;28;20092;-70
2023/05/31 06:14:37;;;;;;;14.68;5.43;;;16.30;94.50;;;;;;5053334;28;20037;-70
2023/05/31 06:17:03;;;;;;;10.65;4.90;;;16.40;94.60;;;;;;5053653;28;20071;-70
2023/05/31 06:19:29;;;;;;;17.88;4.28;;;16.30;94.40;;;;;;5053599;28;20029;-70
2023/05/31 06:21:57;;;;;;;8.07;3.97;;;16.30;94.60;;;;;;5053363;28;20095;-70
2023/05/31 06:24:23;;;;;;;15.75;4.70;;;16.70;94.50;;;;;;5053312;28;20482;-70
2023/05/31 06:26:49;;;;;;;6.75;3.78;;;16.90;94.00;;;;;;5053618;28;20039;-70
2023/05/31 06:29:14;;;;;;;8.15;4.47;;;17.10;93.80;;;;;;5053124;28;20072;-71
2023/05/31 06:31:40;;;;;;;9.57;4.22;;;17.20;93.60;;;;;;5053326;28;20041;-70
2023/05/31 06:34:06;;;;;;;16.75;4.00;;;17.30;93.50;;;;;;5052998;28;20136;-70
2023/05/31 06:36:31;;;;;;;13.32;4.40;;;17.30;93.50;;;;;;5053093;28;20044;-70
2023/05/31 06:38:57;;;;;;;32.10;6.03;;;17.30;93.50;;;;;;5052376;28;20493;-70
2023/05/31 06:41:25;;;;;;;10.95;4.60;;;17.30;93.50;;;;;;5052996;28;20052;-71
2023/05/31 06:43:50;;;;;;;13.03;4.20;;;17.50;93.40;;;;;;5051931;28;20048;-70
2023/05/31 06:46:16;;;;;;;16.98;4.07;;;17.40;93.20;;;;;;5052835;28;20093;-70
2023/05/31 06:48:42;;;;;;;12.68;4.35;;;17.30;93.20;;;;;;5052957;28;20037;-70
2023/05/31 06:51:07;;;;;;;14.50;3.95;;;17.40;93.20;;;;;;5053398;28;20028;-71
2023/05/31 06:53:33;;;;;;;16.67;4.20;;;17.50;92.90;;;;;;5052653;28;20041;-70
2023/05/31 06:55:59;;;;;;;11.40;4.47;;;17.40;92.80;;;;;;5051379;28;20068;-70
2023/05/31 06:58:30;;;;;;;9.70;4.20;;;17.50;92.80;;;;;;5051815;28;20336;-73
2023/05/31 07:00:55;;;;;;;8.77;3.92;;;17.90;92.90;;;;;;5052545;28;20126;-72
2023/05/31 07:03:21;;;;;;;9.25;4.63;;;18.30;92.30;;;;;;5052619;28;20518;-71
2023/05/31 07:05:46;;;;;;;9.93;3.92;;;18.50;91.70;;;;;;5053240;28;20060;-71
2023/05/31 07:08:14;;;;;;;14.05;4.30;;;18.60;91.60;;;;;;5052203;28;20043;-72
2023/05/31 07:10:40;;;;;;;10.80;4.30;;;18.70;91.50;;;;;;5052518;28;20048;-71
2023/05/31 07:13:06;;;;;;;11.80;4.55;;;18.70;91.40;;;;;;5052437;28;20029;-71
2023/05/31 07:15:33;;;;;;;14.18;5.95;;;18.70;91.20;;;;;;5050931;28;20371;-71
2023/05/31 07:17:58;;;;;;;9.00;3.85;;;18.80;91.20;;;;;;5052837;28;20441;-71
2023/05/31 07:20:24;;;;;;;28.55;4.55;;;18.80;90.90;;;;;;5052264;28;20037;-71
2023/05/31 07:22:51;;;;;;;24.10;5.95;;;18.90;91.20;;;;;;5052234;28;20040;-71
2023/05/31 07:25:16;;;;;;;12.93;4.38;;;18.90;90.90;;;;;;5052474;28;20438;-72
2023/05/31 07:27:42;;;;;;;10.13;3.83;;;18.90;90.70;;;;;;5052258;28;20096;-71
2023/05/31 07:30:08;;;;;;;10.02;3.75;;;18.90;90.60;;;;;;5052338;28;20375;-70
2023/05/31 07:32:34;;;;;;;7.03;3.40;;;18.90;90.40;;;;;;5052356;28;20359;-71
2023/05/31 07:35:00;;;;;;;8.88;4.13;;;18.80;90.40;;;;;;5052003;28;20033;-71
2023/05/31 07:37:25;;;;;;;76.32;9.98;;;19.00;90.50;;;;;;5052003;28;20041;-71
2023/05/31 07:39:51;;;;;;;27.73;5.00;;;19.10;90.40;;;;;;5051990;28;20044;-72
2023/05/31 07:42:17;;;;;;;8.25;3.28;;;19.30;90.60;;;;;;5052354;28;20039;-70
2023/05/31 07:44:42;;;;;;;15.45;4.35;;;19.50;90.20;;;;;;5050812;28;20021;-70
2023/05/31 07:47:08;;;;;;;9.25;3.45;;;19.60;90.00;;;;;;5051700;28;20036;-70
2023/05/31 07:49:34;;;;;;;10.32;3.42;;;19.80;89.00;;;;;;5051883;28;20371;-71
2023/05/31 07:51:59;;;;;;;13.15;3.60;;;20.00;89.00;;;;;;5051944;28;20029;-71
2023/05/31 07:54:25;;;;;;;27.38;5.00;;;20.30;88.80;;;;;;5051548;28;20021;-71
2023/05/31 07:56:51;;;;;;;11.90;3.20;;;20.50;88.20;;;;;;5051106;28;20025;-69
2023/05/31 07:59:17;;;;;;;10.25;3.45;;;20.70;87.40;;;;;;5051632;28;20033;-71
2023/05/31 08:01:43;;;;;;;13.68;3.47;;;20.90;88.10;;;;;;5051616;28;20094;-71
2023/05/31 08:04:10;;;;;;;9.10;3.17;;;21.00;86.50;;;;;;5051290;28;20116;-71
2023/05/31 08:06:36;;;;;;;9.65;2.83;;;21.10;86.20;;;;;;5051419;28;20443;-70
2023/05/31 08:09:06;;;;;;;10.77;3.13;;;21.30;85.70;;;;;;5051863;28;20457;-70
2023/05/31 08:11:35;;;;;;;9.32;2.22;;;21.40;85.30;;;;;;5051452;28;20420;-69
2023/05/31 08:14:01;;;;;;;22.08;3.90;;;21.60;82.90;;;;;;5051197;28;20525;-69
2023/05/31 08:16:27;;;;;;;8.38;2.97;;;21.60;83.70;;;;;;5051577;28;20124;-71
2023/05/31 08:18:53;;;;;;;7.60;2.70;;;22.10;84.70;;;;;;5051256;28;20188;-72
2023/05/31 08:21:18;;;;;;;7.75;2.63;;;22.40;80.80;;;;;;5050934;28;20021;-71
2023/05/31 08:23:44;;;;;;;9.13;2.75;;;22.40;80.70;;;;;;5051087;28;20029;-71
2023/05/31 08:26:10;;;;;;;6.60;2.40;;;22.70;81.60;;;;;;5050936;28;20126;-71
2023/05/31 08:28:35;;;;;;;7.20;2.13;;;22.90;81.30;;;;;;5051024;28;20033;-71
2023/05/31 08:31:01;;;;;;;10.70;2.58;;;23.60;79.40;;;;;;5050939;28;20226;-71
2023/05/31 08:33:29;;;;;;;7.65;2.30;;;24.50;78.40;;;;;;5051181;28;20451;-71
2023/05/31 08:35:59;;;;;;;6.65;2.00;;;25.40;73.00;;;;;;5051308;28;20021;-71
2023/05/31 08:38:26;;;;;;;9.32;2.15;;;26.20;69.70;;;;;;5051118;28;20029;-71
2023/05/31 08:40:52;;;;;;;6.07;2.67;;;27.30;67.70;;;;;;5050975;28;20033;-74
2023/05/31 08:43:21;;;;;;;8.63;2.63;;;28.50;65.50;;;;;;5050966;28;20044;-71
2023/05/31 08:45:49;;;;;;;10.38;2.40;;;29.30;61.90;;;;;;5050789;28;20076;-71
2023/05/31 08:48:21;;;;;;;9.10;2.65;;;30.10;59.20;;;;;;5051436;28;20123;-71
2023/05/31 08:50:48;;;;;;;7.50;2.45;;;29.90;56.20;;;;;;5050993;28;20604;-71
2023/05/31 08:53:16;;;;;;;6.65;2.25;;;31.00;60.10;;;;;;5050651;28;20090;-71
2023/05/31 08:55:46;;;;;;;14.20;2.90;;;31.60;55.40;;;;;;5050781;28;20394;-71
2023/05/31 08:58:13;;;;;;;8.90;2.20;;;31.40;53.40;;;;;;5049617;28;20037;-70
2023/05/31 09:00:39;;;;;;;11.38;2.85;;;31.70;52.60;;;;;;5049492;28;20362;-72
2023/05/31 09:03:06;;;;;;;13.80;2.67;;;31.80;51.40;;;;;;5050313;28;20063;-71
2023/05/31 09:05:32;;;;;;;6.93;2.42;;;32.40;51.60;;;;;;5050430;28;20419;-72
2023/05/31 09:08:02;;;;;;;10.05;2.50;;;32.50;49.30;;;;;;5050583;28;20104;-69
2023/05/31 09:10:28;;;;;;;11.85;2.53;;;31.40;49.30;;;;;;5050541;28;20055;-71
2023/05/31 09:12:54;;;;;;;9.70;2.35;;;31.90;49.50;;;;;;5050584;28;20021;-71
2023/05/31 09:15:23;;;;;;;13.00;2.30;;;32.40;48.70;;;;;;5051020;28;20072;-70
2023/05/31 09:17:50;;;;;;;14.18;2.78;;;32.00;48.40;;;;;;5049520;28;20032;-70
2023/05/31 09:20:16;;;;;;;19.08;3.33;;;31.80;47.70;;;;;;5050305;28;20072;-71
2023/05/31 09:22:46;;;;;;;11.57;2.50;;;30.00;48.00;;;;;;5049148;28;20029;-70
2023/05/31 09:25:12;;;;;;;8.27;2.50;;;30.50;49.40;;;;;;5049129;28;20037;-70
2023/05/31 09:27:39;;;;;;;8.80;2.40;;;30.80;49.40;;;;;;5050592;28;20024;-70
2023/05/31 09:30:08;;;;;;;11.32;2.97;;;31.10;48.80;;;;;;5050608;28;20041;-71
2023/05/31 09:32:37;;;;;;;9.40;2.78;;;30.90;49.10;;;;;;5049139;28;20056;-72
2023/05/31 09:35:14;;;;;;;9.30;2.35;;;30.60;49.70;;;;;;5050245;28;20040;-71
2023/05/31 09:37:46;;;;;;;30.83;3.87;;;30.20;50.10;;;;;;5050214;28;20067;-70
2023/05/31 09:40:13;;;;;;;18.13;2.75;;;29.90;50.70;;;;;;5050324;28;20037;-71
2023/05/31 09:42:46;;;;;;;23.65;3.22;;;29.60;50.40;;;;;;5049994;28;20029;-72
2023/05/31 09:45:11;;;;;;;6.35;2.70;;;29.00;50.80;;;;;;5050756;28;20366;-71
2023/05/31 09:47:37;;;;;;;4.07;1.92;;;28.60;51.00;;;;;;5050101;28;20459;-71
2023/05/31 09:50:03;;;;;;;5.78;2.33;;;28.50;51.70;;;;;;5049311;28;20033;-70
2023/05/31 09:52:33;;;;;;;7.97;2.10;;;28.40;51.80;;;;;;5050084;28;20029;-69
2023/05/31 09:55:05;;;;;;;6.93;2.05;;;27.90;52.10;;;;;;5049604;28;20372;-71
2023/05/31 09:57:32;;;;;;;6.45;1.88;;;28.10;52.50;;;;;;5049776;28;20021;-71
2023/05/31 10:00:01;;;;;;;10.70;3.20;;;28.20;52.10;;;;;;5050498;28;20071;-70
2023/05/31 10:02:27;;;;;;;4.13;1.70;;;27.70;51.70;;;;;;5048706;28;20048;-71
2023/05/31 10:04:56;;;;;;;8.23;2.53;;;27.70;52.90;;;;;;5049804;28;20116;-71
2023/05/31 10:07:22;;;;;;;11.98;2.47;;;27.80;52.80;;;;;;5050008;28;20123;-71
2023/05/31 10:09:48;;;;;;;4.82;2.30;;;27.70;52.70;;;;;;5049575;28;20037;-71
2023/05/31 10:12:17;;;;;;;5.40;2.47;;;27.80;52.80;;;;;;5050101;28;20021;-72
2023/05/31 10:14:49;;;;;;;6.70;2.15;;;27.70;52.90;;;;;;5049663;28;20483;-71
2023/05/31 10:17:20;;;;;;;7.32;2.28;;;27.50;52.40;;;;;;5048659;28;20040;-71
2023/05/31 10:19:52;;;;;;;9.88;1.88;;;27.30;52.50;;;;;;5049614;28;20434;-70
2023/05/31 10:22:19;;;;;;;22.58;4.93;;;27.20;52.40;;;;;;5049741;28;20115;-70
2023/05/31 10:24:53;;;;;;;12.25;2.35;;;27.30;52.80;;;;;;5048366;28;20098;-71
2023/05/31 10:27:31;;;;;;;10.00;2.13;;;27.50;52.70;;;;;;5049863;28;20427;-70
2023/05/31 10:30:04;;;;;;;11.80;2.83;;;27.50;52.40;;;;;;5049563;28;20068;-70
2023/05/31 10:32:33;;;;;;;6.88;1.90;;;27.60;52.40;;;;;;5049660;28;20037;-70
2023/05/31 10:35:00;;;;;;;8.20;2.20;;;27.50;52.30;;;;;;5049321;28;20041;-71
2023/05/31 10:37:26;;;;;;;5.60;2.63;;;27.20;51.70;;;;;;5049447;28;20118;-69
2023/05/31 10:40:26;;;;;;;5.18;1.98;;;27.10;52.30;;;;;;5049382;28;20244;-70
2023/05/31 10:42:56;;;;;;;7.95;2.15;;;26.60;51.70;;;;;;5049854;28;20206;-70
2023/05/31 10:45:28;;;;;;;8.75;2.10;;;26.70;52.90;;;;;;5053595;28;20048;-70
2023/05/31 10:48:10;;;;;;;9.90;2.85;;;26.80;52.50;;;;;;5053416;28;20072;-70
2023/05/31 10:50:54;;;;;;;12.05;3.67;;;26.90;53.20;;;;;;5051282;28;20060;-70
2023/05/31 10:53:20;;;;;;;6.43;2.50;;;26.80;52.80;;;;;;5053089;28;20021;-71
2023/05/31 10:55:47;;;;;;;7.03;2.08;;;27.00;52.70;;;;;;5051622;28;20033;-70
2023/05/31 10:58:31;;;;;;;10.33;2.10;;;27.10;52.10;;;;;;5051445;28;20340;-71
2023/05/31 11:00:57;;;;;;;7.90;2.30;;;27.00;52.20;;;;;;5052432;28;20116;-70
2023/05/31 11:03:24;;;;;;;4.00;1.92;;;27.20;52.00;;;;;;5052718;28;20025;-70
2023/05/31 11:05:57;;;;;;;6.35;1.98;;;26.70;51.50;;;;;;5053450;28;20017;-70
2023/05/31 11:08:24;;;;;;;6.50;2.17;;;26.50;52.20;;;;;;5052735;28;20036;-70
2023/05/31 11:10:49;;;;;;;10.23;2.22;;;26.70;52.60;;;;;;5052503;28;20044;-70
2023/05/31 11:13:18;;;;;;;5.15;2.08;;;26.50;52.10;;;;;;5052811;28;20021;-69
2023/05/31 11:15:45;;;;;;;7.88;2.08;;;26.70;53.00;;;;;;5052415;28;20029;-70
2023/05/31 11:18:15;;;;;;;;;;;26.90;53.10;;;;;;5053497;28;20256;-69
2023/05/31 11:20:41;;;;;;;7.22;2.17;;;26.90;52.90;;;;;;5051884;28;19941;-70
2023/05/31 11:23:18;;;;;;;5.50;1.98;;;26.90;52.90;;;;;;5052484;28;20047;-69
2023/05/31 11:26:05;;;;;;;3.35;1.90;;;27.00;52.50;;;;;;5052461;28;20025;-70
2023/05/31 11:28:31;;;;;;;11.63;5.05;;;27.00;52.70;;;;;;5051988;28;20116;-72
2023/05/31 11:30:56;;;;;;;9.68;3.50;;;27.00;53.10;;;;;;5052044;28;20029;-71
2023/05/31 11:33:23;;;;;;;13.15;2.35;;;27.00;52.60;;;;;;5052661;28;20047;-70
2023/05/31 11:35:49;;;;;;;18.35;2.92;;;27.10;52.70;;;;;;5052664;28;20072;-71
2023/05/31 11:38:15;;;;;;;10.43;2.20;;;27.10;52.90;;;;;;5050959;28;20045;-70
2023/05/31 11:40:41;;;;;;;7.80;2.45;;;27.10;52.10;;;;;;5051649;28;20037;-70
2023/05/31 11:43:08;;;;;;;6.97;1.52;;;27.00;52.10;;;;;;5051764;28;20367;-70
2023/05/31 11:45:37;;;;;;;9.20;2.00;;;26.80;51.10;;;;;;5051935;28;20049;-71
2023/05/31 11:48:08;;;;;;;4.18;1.40;;;26.80;51.90;;;;;;5052288;28;20029;-71
2023/05/31 11:50:34;;;;;;;9.57;2.65;;;26.80;51.70;;;;;;5051884;28;20084;-71
2023/05/31 11:53:04;;;;;;;5.10;1.80;;;26.70;51.70;;;;;;5051670;28;20041;-71
2023/05/31 11:55:33;;;;;;;5.00;1.70;;;26.70;51.90;;;;;;5050550;28;20072;-71
2023/05/31 11:57:59;;;;;;;8.95;2.03;;;26.60;52.10;;;;;;5050595;28;20032;-71
2023/05/31 12:00:25;;;;;;;13.98;4.25;;;26.50;52.60;;;;;;5051636;28;20075;-71
2023/05/31 12:02:52;;;;;;;6.18;2.10;;;26.40;52.60;;;;;;5051914;28;20392;-72
2023/05/31 12:05:18;;;;;;;6.38;1.60;;;26.50;53.10;;;;;;5051488;28;20402;-71
2023/05/31 12:07:45;;;;;;;5.63;1.45;;;26.60;53.10;;;;;;5051396;28;20240;-70
2023/05/31 12:10:11;;;;;;;6.32;1.85;;;26.70;52.80;;;;;;5051384;28;20060;-70
2023/05/31 12:12:40;;;;;;;6.30;1.38;;;26.60;52.50;;;;;;5051252;28;20032;-71
2023/05/31 12:15:06;;;;;;;6.65;1.55;;;26.70;52.80;;;;;;5051639;28;20025;-71
2023/05/31 12:17:32;;;;;;;6.13;1.65;;;26.70;52.60;;;;;;5051265;28;20029;-70
2023/05/31 12:19:59;;;;;;;6.70;1.77;;;26.80;52.30;;;;;;5051169;28;20120;-70
2023/05/31 12:22:26;;;;;;;8.20;4.10;;;26.80;52.60;;;;;;5051579;28;20032;-70
2023/05/31 12:24:54;;;;;;;4.87;1.43;;;26.80;52.60;;;;;;5051261;28;20095;-71
2023/05/31 12:27:21;;;;;;;;;;;26.60;53.00;;;;;;5051931;28;20254;-70
2023/05/31 12:29:47;;;;;;;7.28;1.55;;;26.70;53.00;;;;;;5050966;28;20016;-72
2023/05/31 12:32:13;;;;;;;2.90;1.40;;;26.60;52.40;;;;;;5051278;28;20112;-70
2023/05/31 12:34:39;;;;;;;6.43;1.45;;;26.60;52.80;;;;;;5051136;28;20036;-70
2023/05/31 12:37:11;;;;;;;5.32;1.60;;;26.50;52.70;;;;;;5049629;28;20518;-71
2023/05/31 12:39:40;;;;;;;11.38;2.92;;;26.60;52.20;;;;;;5050578;28;20117;-72
2023/05/31 12:42:06;;;;;;;3.55;1.42;;;26.50;52.30;;;;;;5051025;28;20025;-71
2023/05/31 12:44:33;;;;;;;2.95;1.42;;;26.50;52.90;;;;;;5050796;28;20463;-70